Time;durP1;ratioP1;P1;durP2;ratioP2;P2;SDS_P1;SDS_P2;PMS_P1;PMS_P2;Temp;Humidity;BMP_temperature;BMP_pressure;BME280_temperature;BME280_humidity;BME280_pressure;Samples;Min_cycle;Max_cycle;Signal;HPM_P1;HPM_P2
2023/07/30 00:00:41;;;;;;;;;;;;;;;17.97;68.03;99249.53;4988500;28;4951;-74
2023/07/30 00:03:08;;;;;;;;;;;;;;;17.96;67.82;99262.34;4985864;28;4245;-74
2023/07/30 00:05:35;;;;;;;;;;;;;;;17.95;67.85;99258.00;4972036;28;4926;-74
2023/07/30 00:08:01;;;;;;;;;;;;;;;17.94;67.71;99253.66;4971355;28;4927;-74
2023/07/30 00:10:28;;;;;;;;;;;;;;;17.93;67.80;99250.13;4987777;28;4839;-74
2023/07/30 00:12:54;;;;;;;;;;;;;;;17.94;67.72;99248.19;4988547;28;4928;-74
2023/07/30 00:15:21;;;;;;;;;;;;;;;17.93;67.65;99257.50;4987774;28;4765;-73
2023/07/30 00:17:47;;;;;;;;;;;;;;;17.93;67.68;99254.75;4972235;28;5044;-75
2023/07/30 00:20:14;;;;;;;;;;;;;;;17.91;67.83;99255.06;4985838;28;4764;-74
2023/07/30 00:22:40;;;;;;;;;;;;;;;17.91;67.72;99249.63;4988443;28;4927;-74
2023/07/30 00:25:08;;;;;;;;;;;;;;;17.90;67.74;99245.28;4984966;28;4792;-74
2023/07/30 00:27:34;;;;;;;;;;;;;;;17.90;67.89;99242.56;4988731;28;4884;-75
2023/07/30 00:30:01;;;;;;;;;;;;;;;17.90;67.82;99247.19;4969640;28;4794;-74
2023/07/30 00:32:27;;;;;;;;;;;;;;;17.89;67.59;99249.13;4988658;28;4745;-75
2023/07/30 00:34:54;;;;;;;;;;;;;;;17.88;67.77;99247.50;4986896;28;4807;-74
2023/07/30 00:37:20;;;;;;;;;;;;;;;17.89;67.53;99251.03;4987476;28;4800;-74
2023/07/30 00:39:47;;;;;;;;;;;;;;;17.87;67.75;99242.34;4988920;28;5046;-74
2023/07/30 00:42:14;;;;;;;;;;;;;;;17.86;67.38;99240.75;4985444;28;4779;-74
2023/07/30 00:44:40;;;;;;;;;;;;;;;17.87;67.72;99242.34;4988863;28;5038;-74
2023/07/30 00:47:07;;;;;;;;;;;;;;;17.86;67.76;99244.28;4985558;28;4752;-74
2023/07/30 00:49:33;;;;;;;;;;;;;;;17.85;67.55;99245.38;4964310;28;4984;-73
2023/07/30 00:52:00;;;;;;;;;;;;;;;17.85;67.78;99248.09;4985418;28;4823;-74
2023/07/30 00:54:26;;;;;;;;;;;;;;;17.84;67.53;99238.31;4988846;28;5050;-73
2023/07/30 00:56:53;;;;;;;;;;;;;;;17.84;67.55;99237.50;4969890;28;4830;-74
2023/07/30 00:59:20;;;;;;;;;;;;;;;17.84;67.45;99234.78;4987879;28;4808;-74
2023/07/30 01:01:46;;;;;;;;;;;;;;;17.82;67.39;99236.97;4985621;28;4713;-73
2023/07/30 01:04:13;;;;;;;;;;;;;;;17.82;67.41;99234.25;4987668;28;4832;-74
2023/07/30 01:06:39;;;;;;;;;;;;;;;17.82;67.42;99235.06;4988095;28;5117;-74
2023/07/30 01:09:06;;;;;;;;;;;;;;;17.81;67.43;99236.19;4987667;28;4895;-75
2023/07/30 01:11:32;;;;;;;;;;;;;;;17.80;67.30;99228.31;4987736;28;4998;-75
2023/07/30 01:13:59;;;;;;;;;;;;;;;17.80;67.27;99237.31;4986438;28;4745;-75
2023/07/30 01:16:26;;;;;;;;;;;;;;;17.80;67.53;99237.31;4970126;28;4997;-74
2023/07/30 01:18:52;;;;;;;;;;;;;;;17.80;67.43;99241.94;4986048;28;4867;-74
2023/07/30 01:21:19;;;;;;;;;;;;;;;17.77;67.57;99231.63;4987580;28;4835;-74
2023/07/30 01:23:45;;;;;;;;;;;;;;;17.79;67.24;99232.13;4984837;28;4721;-74
2023/07/30 01:26:12;;;;;;;;;;;;;;;17.78;67.31;99235.97;4987669;28;4811;-74
2023/07/30 01:28:39;;;;;;;;;;;;;;;17.76;67.25;99230.78;4985419;28;4799;-74
2023/07/30 01:31:05;;;;;;;;;;;;;;;17.76;67.42;99230.78;4986842;28;4963;-74
2023/07/30 01:33:32;;;;;;;;;;;;;;;17.75;67.38;99234.63;4985788;28;4804;-75
2023/07/30 01:35:58;;;;;;;;;;;;;;;17.76;67.34;99238.16;4987511;28;4963;-75
2023/07/30 01:38:25;;;;;;;;;;;;;;;17.74;67.26;99226.78;4985987;28;4872;-74
2023/07/30 01:40:52;;;;;;;;;;;;;;;17.75;67.27;99231.09;4970041;28;4799;-74
2023/07/30 01:43:18;;;;;;;;;;;;;;;17.74;67.22;99224.06;4985828;28;5041;-74
2023/07/30 01:45:45;;;;;;;;;;;;;;;17.73;67.19;99225.13;4986635;28;4764;-74
2023/07/30 01:48:11;;;;;;;;;;;;;;;17.73;67.13;99222.41;4986991;28;4795;-74
2023/07/30 01:50:38;;;;;;;;;;;;;;;17.71;67.18;99228.16;4986439;28;4716;-75
2023/07/30 01:53:04;;;;;;;;;;;;;;;17.73;67.15;99219.69;4986400;28;5043;-74
2023/07/30 01:55:31;;;;;;;;;;;;;;;17.71;67.17;99217.28;4968603;28;4838;-75
2023/07/30 01:57:57;;;;;;;;;;;;;;;17.70;67.21;99210.19;4986398;28;4843;-74
2023/07/30 02:00:24;;;;;;;;;;;;;;;17.69;67.31;99214.03;4985041;28;4697;-74
2023/07/30 02:02:51;;;;;;;;;;;;;;;17.70;67.20;99212.94;4986057;28;4944;-75
2023/07/30 02:05:17;;;;;;;;;;;;;;;17.69;67.27;99217.56;4984588;28;4759;-75
2023/07/30 02:07:44;;;;;;;;;;;;;;;17.69;67.26;99205.88;4986431;28;4998;-75
2023/07/30 02:10:10;;;;;;;;;;;;;;;17.67;67.25;99208.88;4984213;28;4875;-74
2023/07/30 02:12:37;;;;;;;;;;;;;;;17.67;67.17;99210.81;4987871;28;4887;-74
2023/07/30 02:15:03;;;;;;;;;;;;;;;17.67;67.31;99213.53;4985374;28;3994;-74
2023/07/30 02:17:30;;;;;;;;;;;;;;;17.67;67.21;99206.16;4986294;28;4816;-74
2023/07/30 02:19:56;;;;;;;;;;;;;;;17.66;66.96;99210.00;4985209;28;4769;-75
2023/07/30 02:22:23;;;;;;;;;;;;;;;17.66;67.03;99212.72;4987075;28;4815;-74
2023/07/30 02:24:49;;;;;;;;;;;;;;;17.64;66.94;99209.47;4969269;28;5064;-75
2023/07/30 02:27:16;;;;;;;;;;;;;;;17.64;67.19;99204.03;4985251;28;4783;-74
2023/07/30 02:29:43;;;;;;;;;;;;;;;17.64;66.92;99209.47;4985402;28;5034;-75
2023/07/30 02:32:09;;;;;;;;;;;;;;;17.64;66.96;99212.19;4967714;28;4787;-75
2023/07/30 02:34:36;;;;;;;;;;;;;;;17.64;67.12;99217.66;4986833;28;5003;-74
2023/07/30 02:37:02;;;;;;;;;;;;;;;17.64;67.11;99219.56;4968076;28;4801;-74
2023/07/30 02:39:29;;;;;;;;;;;;;;;17.62;67.00;99214.44;4987333;28;4972;-75
2023/07/30 02:41:55;;;;;;;;;;;;;;;17.63;66.95;99220.69;4966256;28;4882;-75
2023/07/30 02:44:22;;;;;;;;;;;;;;;17.62;66.95;99216.34;4970278;28;4946;-76
2023/07/30 02:46:48;;;;;;;;;;;;;;;17.61;67.08;99207.34;4982759;28;4091;-75
2023/07/30 02:49:15;;;;;;;;;;;;;;;17.61;66.86;99207.34;4983860;28;5096;-74
2023/07/30 02:51:43;;;;;;;;;;;;;;;17.61;66.96;99212.00;4985282;28;4780;-74
2023/07/30 02:54:09;;;;;;;;;;;;;;;17.61;66.83;99212.00;4985525;28;4740;-75
2023/07/30 02:56:36;;;;;;;;;;;;;;;17.60;67.09;99207.66;4985348;28;4958;-74
2023/07/30 02:59:02;;;;;;;;;;;;;;;17.59;67.01;99215.03;4961740;28;4822;-74
2023/07/30 03:01:29;;;;;;;;;;;;;;;17.59;66.85;99209.59;4984500;28;5172;-74
2023/07/30 03:03:55;;;;;;;;;;;;;;;17.59;66.80;99201.44;4965685;28;4789;-74
2023/07/30 03:06:22;;;;;;;;;;;;;;;17.58;66.94;99199.00;4987334;28;5035;-75
2023/07/30 03:08:49;;;;;;;;;;;;;;;17.58;66.97;99188.91;4983925;28;4744;-74
2023/07/30 03:11:15;;;;;;;;;;;;;;;17.58;66.92;99199.00;4968253;28;4990;-75
2023/07/30 03:13:42;;;;;;;;;;;;;;;17.58;66.87;99201.72;4984734;28;4784;-75
2023/07/30 03:16:08;;;;;;;;;;;;;;;17.57;66.72;99198.19;4984524;28;4843;-75
2023/07/30 03:18:35;;;;;;;;;;;;;;;17.57;66.88;99195.47;4968025;28;4838;-74
2023/07/30 03:21:01;;;;;;;;;;;;;;;17.56;66.90;99187.56;4985146;28;4733;-75
2023/07/30 03:23:28;;;;;;;;;;;;;;;17.56;66.65;99193.84;4985694;28;5042;-75
2023/07/30 03:25:54;;;;;;;;;;;;;;;17.55;66.84;99191.41;4967496;28;4779;-74
2023/07/30 03:28:21;;;;;;;;;;;;;;;17.55;66.68;99192.22;4986075;28;4819;-74
2023/07/30 03:30:47;;;;;;;;;;;;;;;17.55;66.70;99194.13;4981403;28;4755;-75
2023/07/30 03:33:14;;;;;;;;;;;;;;;17.55;66.60;99194.13;4968814;28;4956;-74
2023/07/30 03:35:40;;;;;;;;;;;;;;;17.53;66.73;99183.56;4967757;28;4931;-74
2023/07/30 03:38:07;;;;;;;;;;;;;;;17.54;66.59;99189.81;4986602;28;4982;-75
2023/07/30 03:40:34;;;;;;;;;;;;;;;17.53;66.82;99189.00;4966887;28;4947;-74
2023/07/30 03:43:00;;;;;;;;;;;;;;;17.53;66.61;99189.00;4968494;28;5105;-75
2023/07/30 03:45:27;;;;;;;;;;;;;;;17.53;66.73;99190.91;4983697;28;4875;-74
2023/07/30 03:47:53;;;;;;;;;;;;;;;17.52;66.79;99192.00;4969386;28;5319;-74
2023/07/30 03:50:20;;;;;;;;;;;;;;;17.52;66.48;99194.75;4975663;28;4803;-75
2023/07/30 03:52:46;;;;;;;;;;;;;;;17.51;66.53;99193.94;4984831;28;4785;-74
2023/07/30 03:55:13;;;;;;;;;;;;;;;17.50;66.57;99200.50;4966490;28;5177;-75
2023/07/30 03:57:40;;;;;;;;;;;;;;;17.51;66.71;99195.84;4985881;28;4804;-75
2023/07/30 04:00:07;;;;;;;;;;;;;;;17.50;66.55;99195.06;4984401;28;4843;-75
2023/07/30 04:02:33;;;;;;;;;;;;;;;17.51;66.50;99196.66;4967069;28;4900;-75
2023/07/30 04:05:00;;;;;;;;;;;;;;;17.50;66.77;99192.34;4985285;28;5039;-75
2023/07/30 04:07:26;;;;;;;;;;;;;;;17.49;66.69;99194.22;4983515;28;4955;-74
2023/07/30 04:09:53;;;;;;;;;;;;;;;17.49;66.56;99193.41;4968819;28;5129;-74
2023/07/30 04:12:21;;;;;;;;;;;;;;;17.47;66.64;99193.72;4980883;28;4969;-73
2023/07/30 04:15:08;;;;;;;;;;;;;;;17.48;66.48;99192.63;4985076;28;4757;-75
2023/07/30 04:18:00;;;;;;;;;;;;;;;17.47;66.51;99190.19;4992808;23;5033;-74
2023/07/30 04:20:52;;;;;;;;;;;;;;;17.47;66.47;99188.28;4985995;28;4834;-73
2023/07/30 04:23:44;;;;;;;;;;;;;;;17.47;66.69;99196.44;4983676;28;5002;-75
2023/07/30 04:26:16;;;;;;;;;;;;;;;17.46;66.56;99192.09;4979062;28;4841;-74
2023/07/30 04:29:07;;;;;;;;;;;;;;;17.45;66.47;99195.94;4974496;28;4804;-74
2023/07/30 04:31:34;;;;;;;;;;;;;;;17.47;66.72;99192.91;4986332;28;4787;-75
2023/07/30 04:34:00;;;;;;;;;;;;;;;17.46;66.52;99196.75;4958281;28;4817;-74
2023/07/30 04:36:27;;;;;;;;;;;;;;;17.45;66.53;99198.66;4983958;28;4714;-74
2023/07/30 04:38:54;;;;;;;;;;;;;;;17.45;66.57;99189.69;4986314;28;5474;-75
2023/07/30 04:41:20;;;;;;;;;;;;;;;17.44;66.44;99190.78;4987187;28;4780;-75
2023/07/30 04:43:47;;;;;;;;;;;;;;;17.44;66.62;99191.59;4987031;28;4868;-74
2023/07/30 04:46:13;;;;;;;;;;;;;;;17.44;66.45;99188.06;4963840;28;4771;-75
2023/07/30 04:48:40;;;;;;;;;;;;;;;17.44;66.35;99188.06;4968918;28;5215;-74
2023/07/30 04:51:06;;;;;;;;;;;;;;;17.44;66.61;99188.88;4985836;28;4746;-75
2023/07/30 04:53:33;;;;;;;;;;;;;;;17.43;66.54;99192.69;4987393;28;4987;-74
2023/07/30 04:55:59;;;;;;;;;;;;;;;17.43;66.50;99194.63;4964942;28;4990;-74
2023/07/30 04:58:26;;;;;;;;;;;;;;;17.44;66.51;99197.06;4979893;28;4953;-74
2023/07/30 05:00:52;;;;;;;;;;;;;;;17.42;66.48;99191.09;4978333;28;4796;-75
2023/07/30 05:03:19;;;;;;;;;;;;;;;17.42;66.50;99193.00;4980184;28;4902;-75
2023/07/30 05:05:45;;;;;;;;;;;;;;;17.42;66.39;99188.38;4977251;28;4894;-75
2023/07/30 05:08:12;;;;;;;;;;;;;;;17.41;66.42;99181.31;4959695;28;4799;-75
2023/07/30 05:10:39;;;;;;;;;;;;;;;17.41;66.52;99186.75;4976443;28;5143;-74
2023/07/30 05:13:05;;;;;;;;;;;;;;;17.42;66.28;99184.84;4979409;28;4866;-75
2023/07/30 05:15:32;;;;;;;;;;;;;;;17.41;66.29;99183.22;4959535;28;4814;-74
2023/07/30 05:17:58;;;;;;;;;;;;;;;17.40;66.42;99182.41;4977695;28;5281;-74
2023/07/30 05:20:25;;;;;;;;;;;;;;;17.40;66.30;99185.13;4979808;28;4818;-74
2023/07/30 05:22:51;;;;;;;;;;;;;;;17.41;66.38;99191.38;4973676;28;4863;-75
2023/07/30 05:25:18;;;;;;;;;;;;;;;17.41;66.48;99188.66;4974417;28;4817;-74
2023/07/30 05:27:44;;;;;;;;;;;;;;;17.40;66.24;99184.31;4959993;28;4787;-74
2023/07/30 05:30:11;;;;;;;;;;;;;;;17.39;66.40;99180.00;4958911;28;4859;-74
2023/07/30 05:32:37;;;;;;;;;;;;;;;17.40;66.39;99184.31;4976246;28;4832;-74
2023/07/30 05:35:04;;;;;;;;;;;;;;;17.39;66.37;99186.25;4975527;28;4933;-74
2023/07/30 05:37:31;;;;;;;;;;;;;;;17.38;66.37;99183.81;4964912;28;4767;-74
2023/07/30 05:39:58;;;;;;;;;;;;;;;17.39;66.33;99182.72;4979528;28;4980;-75
2023/07/30 05:42:24;;;;;;;;;;;;;;;17.38;66.17;99184.63;4977218;28;4777;-74
2023/07/30 05:44:51;;;;;;;;;;;;;;;17.39;66.33;99188.16;4980158;28;4783;-74
2023/07/30 05:47:17;;;;;;;;;;;;;;;17.38;66.18;99183.81;4978285;28;5227;-74
2023/07/30 05:49:44;;;;;;;;;;;;;;;17.37;66.17;99190.38;4978646;28;4803;-73
2023/07/30 05:52:10;;;;;;;;;;;;;;;17.38;66.32;99191.97;4978292;28;5035;-74
2023/07/30 05:54:37;;;;;;;;;;;;;;;17.37;66.17;99190.38;4976628;28;4845;-74
2023/07/30 05:57:03;;;;;;;;;;;;;;;17.37;66.20;99183.00;4979125;28;4788;-74
2023/07/30 05:59:30;;;;;;;;;;;;;;;17.38;66.27;99183.81;4977110;28;4911;-74
2023/07/30 06:01:56;;;;;;;;;;;;;;;17.37;66.10;99185.72;4975256;28;4898;-72
2023/07/30 06:04:23;;;;;;;;;;;;;;;17.36;66.29;99186.03;4975891;28;3986;-74
2023/07/30 06:06:49;;;;;;;;;;;;;;;17.36;66.13;99186.03;4962061;28;4751;-75
2023/07/30 06:09:16;;;;;;;;;;;;;;;17.36;66.21;99180.59;4976758;28;5053;-74
2023/07/30 06:11:43;;;;;;;;;;;;;;;17.36;66.28;99178.69;4977917;28;4594;-74
2023/07/30 06:14:09;;;;;;;;;;;;;;;17.36;66.24;99175.97;4977958;28;4922;-75
2023/07/30 06:16:36;;;;;;;;;;;;;;;17.21;73.69;99177.00;4977358;28;4162;-74
2023/07/30 06:19:02;;;;;;;;;;;;;;;17.29;70.22;99182.88;4979705;28;4955;-74
2023/07/30 06:21:29;;;;;;;;;;;;;;;17.33;68.35;99183.91;4975323;28;4859;-74
2023/07/30 06:23:55;;;;;;;;;;;;;;;17.33;67.73;99181.19;4957530;28;4958;-74
2023/07/30 06:26:22;;;;;;;;;;;;;;;17.35;67.71;99177.03;4959235;28;4930;-75
2023/07/30 06:28:49;;;;;;;;;;;;;;;17.36;67.34;99189.56;4977781;28;4724;-74
2023/07/30 06:31:15;;;;;;;;;;;;;;;17.35;67.29;99181.69;4970448;28;4358;-74
2023/07/30 06:33:42;;;;;;;;;;;;;;;17.35;67.40;99178.97;4975223;28;4806;-74
2023/07/30 06:36:08;;;;;;;;;;;;;;;17.34;67.35;99180.88;4976973;28;4780;-73
2023/07/30 06:38:35;;;;;;;;;;;;;;;17.36;67.04;99191.47;4977659;28;4795;-73
2023/07/30 06:41:01;;;;;;;;;;;;;;;17.36;67.17;99184.13;4955737;28;5026;-74
2023/07/30 06:43:28;;;;;;;;;;;;;;;17.36;67.09;99184.13;4975212;28;4810;-74
2023/07/30 06:45:54;;;;;;;;;;;;;;;17.36;67.08;99189.56;4977687;28;4997;-74
2023/07/30 06:48:21;;;;;;;;;;;;;;;17.35;66.94;99185.19;4959647;28;4706;-74
2023/07/30 06:50:48;;;;;;;;;;;;;;;17.36;66.89;99186.03;4977524;28;4986;-73
2023/07/30 06:53:14;;;;;;;;;;;;;;;17.35;66.87;99187.94;4976102;28;4784;-74
2023/07/30 06:55:52;;;;;;;;;;;;;;;17.35;66.65;99185.19;4977955;28;4944;-74
2023/07/30 06:58:42;;;;;;;;;;;;;;;17.35;66.88;99185.19;4975778;28;4998;-75
2023/07/30 07:01:27;;;;;;;;;;;;;;;17.35;66.62;99179.75;4977476;28;4720;-75
2023/07/30 07:03:54;;;;;;;;;;;;;;;17.35;66.68;99176.25;4971235;28;4880;-75
2023/07/30 07:06:20;;;;;;;;;;;;;;;17.35;66.60;99176.25;4958182;28;4887;-75
2023/07/30 07:08:47;;;;;;;;;;;;;;;17.34;66.67;99171.91;4978234;28;4879;-74
2023/07/30 07:11:13;;;;;;;;;;;;;;;17.34;66.61;99175.44;4975487;28;4878;-74
2023/07/30 07:13:40;;;;;;;;;;;;;;;17.33;66.54;99176.56;4976915;28;4859;-74
2023/07/30 07:16:06;;;;;;;;;;;;;;;17.35;66.38;99178.97;4977164;28;4741;-75
2023/07/30 07:18:33;;;;;;;;;;;;;;;17.34;66.48;99169.19;4978164;28;4190;-75
2023/07/30 07:20:59;;;;;;;;;;;;;;;17.33;66.54;99173.84;4977245;28;4777;-75
2023/07/30 07:23:26;;;;;;;;;;;;;;;17.33;66.46;99176.56;4976261;28;4907;-75
2023/07/30 07:25:53;;;;;;;;;;;;;;;17.34;66.50;99180.88;4977872;28;4755;-74
2023/07/30 07:28:19;;;;;;;;;;;;;;;17.34;66.35;99169.19;4977033;28;4720;-74
2023/07/30 07:30:46;;;;;;;;;;;;;;;17.36;66.32;99175.16;4957862;28;5068;-75
2023/07/30 07:33:12;;;;;;;;;;;;;;;17.36;66.51;99178.69;4977176;28;4114;-75
2023/07/30 07:35:39;;;;;;;;;;;;;;;17.36;66.59;99181.41;4978346;28;5038;-74
2023/07/30 07:38:06;;;;;;;;;;;;;;;17.36;66.52;99184.13;4973286;28;4747;-75
2023/07/30 07:40:33;;;;;;;;;;;;;;;17.37;66.52;99184.91;4955847;28;4829;-75
2023/07/30 07:42:59;;;;;;;;;;;;;;;17.36;66.49;99186.03;4958131;28;4814;-76
2023/07/30 07:45:26;;;;;;;;;;;;;;;17.37;66.64;99182.19;4963354;28;4887;-75
2023/07/30 07:47:52;;;;;;;;;;;;;;;17.37;66.50;99185.72;4963966;28;4844;-75
2023/07/30 07:50:19;;;;;;;;;;;;;;;17.38;66.55;99178.38;4976990;28;4425;-75
2023/07/30 07:52:45;;;;;;;;;;;;;;;17.38;66.50;99175.63;4975806;28;4524;-75
2023/07/30 07:55:12;;;;;;;;;;;;;;;17.38;66.65;99165.59;4959725;28;4223;-75
2023/07/30 07:57:38;;;;;;;;;;;;;;;17.38;66.32;99165.59;4974182;28;4117;-76
2023/07/30 08:00:06;;;;;;;;;;;;;;;17.38;66.60;99165.59;4977176;28;4284;-76
2023/07/30 08:02:32;;;;;;;;;;;;;;;17.39;66.44;99160.94;4973023;28;4346;-75
2023/07/30 08:04:59;;;;;;;;;;;;;;;17.39;66.52;99169.13;4978897;28;4061;-75
2023/07/30 08:07:26;;;;;;;;;;;;;;;17.40;66.35;99171.53;4962518;28;4400;-76
2023/07/30 08:09:54;;;;;;;;;;;;;;;17.39;66.56;99158.22;4981773;28;4152;-76
2023/07/30 08:12:21;;;;;;;;;;;;;;;17.41;66.58;99159.53;4980274;28;4454;-76
2023/07/30 08:14:47;;;;;;;;;;;;;;;17.41;66.28;99164.16;4961405;28;4612;-76
2023/07/30 08:17:14;;;;;;;;;;;;;;;17.41;66.23;99162.28;4979219;28;4361;-76
2023/07/30 08:19:40;;;;;;;;;;;;;;;17.41;66.17;99167.72;4980757;28;4122;-74
2023/07/30 08:22:07;;;;;;;;;;;;;;;17.41;66.18;99180.50;4981316;28;4347;-74
2023/07/30 08:24:34;;;;;;;;;;;;;;;17.40;66.39;99181.59;4980725;28;4355;-73
2023/07/30 08:27:00;;;;;;;;;;;;;;;17.39;66.46;99178.06;4961694;28;4153;-73
2023/07/30 08:29:27;;;;;;;;;;;;;;;17.40;66.45;99176.97;4975993;28;4107;-72
2023/07/30 08:31:53;;;;;;;;;;;;;;;17.41;66.44;99172.31;4958852;28;4133;-74
2023/07/30 08:34:20;;;;;;;;;;;;;;;17.41;66.33;99175.03;4960261;28;4243;-74
2023/07/30 08:36:46;;;;;;;;;;;;;;;17.39;66.31;99169.91;4980780;28;4175;-73
2023/07/30 08:39:13;;;;;;;;;;;;;;;17.41;66.33;99175.03;4962816;28;4805;-73
2023/07/30 08:41:39;;;;;;;;;;;;;;;17.41;66.12;99167.72;4979645;28;4865;-73
2023/07/30 08:44:06;;;;;;;;;;;;;;;17.41;66.33;99173.16;4980582;28;4939;-74
2023/07/30 08:46:33;;;;;;;;;;;;;;;17.42;66.11;99173.97;4976539;28;4052;-73
2023/07/30 08:48:59;;;;;;;;;;;;;;;17.42;66.12;99172.03;4961606;28;4986;-74
2023/07/30 08:51:26;;;;;;;;;;;;;;;17.42;66.41;99176.69;4979354;28;4648;-76
2023/07/30 08:53:52;;;;;;;;;;;;;;;17.41;66.28;99167.72;4981668;28;4227;-74
2023/07/30 08:56:19;;;;;;;;;;;;;;;17.41;66.26;99175.88;4979075;28;4125;-74
2023/07/30 08:58:45;;;;;;;;;;;;;;;17.41;66.21;99169.59;4980411;28;4451;-74
2023/07/30 09:01:12;;;;;;;;;;;;;;;17.41;66.33;99169.59;4960934;28;4100;-74
2023/07/30 09:03:38;;;;;;;;;;;;;;;17.41;66.12;99170.44;4979259;28;4489;-75
2023/07/30 09:06:05;;;;;;;;;;;;;;;17.42;66.47;99172.03;4961652;28;4330;-75
2023/07/30 09:08:33;;;;;;;;;;;;;;;17.41;66.33;99175.88;4961995;28;4073;-76
2023/07/30 09:11:01;;;;;;;;;;;;;;;17.42;66.36;99171.22;4972455;28;4357;-74
2023/07/30 09:13:28;;;;;;;;;;;;;;;17.41;66.22;99169.59;4980732;28;5438;-75
2023/07/30 09:15:54;;;;;;;;;;;;;;;17.40;66.19;99170.72;4979262;28;4140;-75
2023/07/30 09:18:21;;;;;;;;;;;;;;;17.39;66.37;99161.75;4977014;28;4233;-76
2023/07/30 09:20:47;;;;;;;;;;;;;;;17.41;66.25;99169.59;4979114;28;4180;-75
2023/07/30 09:23:14;;;;;;;;;;;;;;;17.40;66.21;99168.81;4956886;28;4179;-77
2023/07/30 09:25:41;;;;;;;;;;;;;;;17.39;66.23;99178.06;4977153;28;4828;-75
2023/07/30 09:28:07;;;;;;;;;;;;;;;17.37;66.34;99176.75;4977338;28;4119;-75
2023/07/30 09:30:34;;;;;;;;;;;;;;;17.37;66.27;99166.69;4980543;28;4523;-76
2023/07/30 09:33:00;;;;;;;;;;;;;;;17.36;66.48;99173.22;4958894;28;4197;-76
2023/07/30 09:35:27;;;;;;;;;;;;;;;17.37;66.60;99179.47;4979374;28;4134;-75
2023/07/30 09:37:56;;;;;;;;;;;;;;;17.36;66.72;99181.41;4978330;28;4524;-77
2023/07/30 09:40:23;;;;;;;;;;;;;;;17.38;66.43;99172.91;4980373;28;4145;-77
2023/07/30 09:42:53;;;;;;;;;;;;;;;17.37;66.62;99183.00;4976422;28;4308;-77
2023/07/30 09:45:29;;;;;;;;;;;;;;;17.36;66.47;99184.13;4979908;28;4433;-77
2023/07/30 09:47:57;;;;;;;;;;;;;;;17.38;66.46;99194.69;4978669;28;4030;-77
2023/07/30 09:50:25;;;;;;;;;;;;;;;17.36;66.33;99188.75;4979972;28;4134;-77
2023/07/30 09:52:51;;;;;;;;;;;;;;;17.37;66.59;99190.38;4980106;28;4480;-77
2023/07/30 09:55:18;;;;;;;;;;;;;;;17.37;66.58;99199.31;4979658;28;4416;-77
2023/07/30 09:57:45;;;;;;;;;;;;;;;17.38;66.47;99189.25;4979188;28;4825;-77
2023/07/30 10:00:14;;;;;;;;;;;;;;;17.37;66.71;99193.09;4959111;28;4539;-76
2023/07/30 10:02:40;;;;;;;;;;;;;;;17.37;66.35;99193.88;4977039;28;4369;-77
2023/07/30 10:05:07;;;;;;;;;;;;;;;17.37;66.58;99191.16;4978210;28;4085;-78
2023/07/30 10:07:33;;;;;;;;;;;;;;;17.37;66.53;99193.88;4974141;28;4314;-77
2023/07/30 10:10:00;;;;;;;;;;;;;;;17.38;66.72;99203.69;4956224;28;4229;-76
2023/07/30 10:12:30;;;;;;;;;;;;;;;17.38;66.56;99205.56;4957415;28;4111;-77
2023/07/30 10:14:56;;;;;;;;;;;;;;;17.38;66.43;99202.84;4959530;28;4134;-77
2023/07/30 10:17:23;;;;;;;;;;;;;;;17.38;66.50;99198.25;4972706;28;4128;-77
2023/07/30 10:19:51;;;;;;;;;;;;;;;17.38;66.58;99194.69;4975496;28;4144;-76
2023/07/30 10:22:18;;;;;;;;;;;;;;;17.38;66.60;99200.97;4978074;28;4080;-77
2023/07/30 10:24:44;;;;;;;;;;;;;;;17.38;66.49;99200.13;4977769;28;4553;-77
2023/07/30 10:27:11;;;;;;;;;;;;;;;17.38;66.53;99197.41;4977685;28;4344;-77
2023/07/30 10:29:41;;;;;;;;;;;;;;;17.38;66.68;99194.69;4976891;28;4820;-76
2023/07/30 10:32:07;;;;;;;;;;;;;;;17.38;66.32;99197.41;4976406;28;4751;-77
2023/07/30 10:34:34;;;;;;;;;;;;;;;17.38;66.49;99184.63;4958487;28;4947;-78
2023/07/30 10:37:01;;;;;;;;;;;;;;;17.39;66.50;99199.03;4976467;28;4565;-78
2023/07/30 10:39:27;;;;;;;;;;;;;;;17.38;66.47;99195.53;4977781;28;4137;-77
2023/07/30 10:41:54;;;;;;;;;;;;;;;17.39;66.50;99190.88;4977019;28;4176;-77
2023/07/30 10:44:20;;;;;;;;;;;;;;;17.38;66.38;99195.53;4977617;28;4184;-77
2023/07/30 10:46:47;;;;;;;;;;;;;;;17.38;66.40;99189.25;4975951;28;4348;-77
2023/07/30 10:49:13;;;;;;;;;;;;;;;17.38;66.33;99187.34;4978493;28;4184;-77
2023/07/30 10:51:40;;;;;;;;;;;;;;;17.42;66.41;99191.09;4957123;28;4688;-77
2023/07/30 10:54:07;;;;;;;;;;;;;;;17.39;66.54;99186.25;4960200;28;4195;-76
2023/07/30 10:56:33;;;;;;;;;;;;;;;17.39;66.23;99190.88;4977285;28;4160;-78
2023/07/30 10:59:00;;;;;;;;;;;;;;;17.39;66.44;99188.97;4977718;28;4236;-77
2023/07/30 11:01:27;;;;;;;;;;;;;;;17.39;66.44;99188.16;4977182;28;4666;-77
2023/07/30 11:03:54;;;;;;;;;;;;;;;17.40;66.55;99187.84;4977868;28;4142;-77
2023/07/30 11:06:20;;;;;;;;;;;;;;;17.39;66.40;99182.72;4975512;28;4129;-77
2023/07/30 11:08:47;;;;;;;;;;;;;;;17.39;66.48;99183.53;4977092;28;4231;-77
2023/07/30 11:11:13;;;;;;;;;;;;;;;17.39;66.45;99183.53;4977536;28;3947;-77
2023/07/30 11:13:40;;;;;;;;;;;;;;;17.41;66.34;99180.50;4978372;28;4262;-77
2023/07/30 11:16:09;;;;;;;;;;;;;;;17.40;66.44;99182.41;4979098;28;4195;-77
2023/07/30 11:18:36;;;;;;;;;;;;;;;17.41;66.46;99183.22;4957352;28;4846;-78
2023/07/30 11:21:02;;;;;;;;;;;;;;;17.41;66.48;99185.94;4977052;28;4285;-77
2023/07/30 11:23:30;;;;;;;;;;;;;;;17.41;66.38;99192.19;4975819;28;4132;-78
2023/07/30 11:25:56;;;;;;;;;;;;;;;17.41;66.53;99185.94;4977214;28;4239;-77
2023/07/30 11:28:23;;;;;;;;;;;;;;;17.41;66.55;99189.47;4976441;28;4827;-78
2023/07/30 11:30:50;;;;;;;;;;;;;;;17.42;66.35;99184.84;4977797;28;4066;-77
2023/07/30 11:33:17;;;;;;;;;;;;;;;17.41;66.55;99181.31;4975633;28;4292;-78
2023/07/30 11:35:43;;;;;;;;;;;;;;;17.42;66.47;99191.09;4977747;28;4646;-78
2023/07/30 11:38:10;;;;;;;;;;;;;;;17.42;66.52;99188.38;4954623;28;4833;-77
2023/07/30 11:40:36;;;;;;;;;;;;;;;17.42;66.51;99188.38;4977881;28;4774;-77
2023/07/30 11:43:03;;;;;;;;;;;;;;;17.42;66.51;99188.38;4979515;28;4533;-77
2023/07/30 11:45:30;;;;;;;;;;;;;;;17.44;66.49;99185.34;4958515;28;4743;-76
2023/07/30 11:47:56;;;;;;;;;;;;;;;17.44;66.57;99180.72;4980047;28;4759;-77
2023/07/30 11:50:23;;;;;;;;;;;;;;;17.44;66.58;99178.00;4979985;28;4882;-77
2023/07/30 11:52:50;;;;;;;;;;;;;;;17.44;66.57;99183.44;4961576;28;4809;-79
2023/07/30 11:55:17;;;;;;;;;;;;;;;17.45;66.70;99178.81;4975108;28;4209;-76
2023/07/30 11:57:44;;;;;;;;;;;;;;;17.45;66.56;99182.31;4981236;28;4759;-77
2023/07/30 12:00:12;;;;;;;;;;;;;;;17.44;66.50;99183.44;4979041;28;5038;-77
2023/07/30 12:02:40;;;;;;;;;;;;;;;17.44;66.48;99186.16;4978697;28;4783;-76
2023/07/30 12:05:07;;;;;;;;;;;;;;;17.45;66.59;99179.59;4980742;28;4661;-76
2023/07/30 12:07:33;;;;;;;;;;;;;;;17.46;66.45;99175.75;4980672;28;5072;-77
2023/07/30 12:10:00;;;;;;;;;;;;;;;17.45;66.60;99182.31;4979230;28;4678;-77
2023/07/30 12:12:27;;;;;;;;;;;;;;;17.46;66.67;99175.75;4981337;28;4817;-76
2023/07/30 12:14:54;;;;;;;;;;;;;;;17.47;66.55;99176.56;4980624;28;4736;-77
2023/07/30 12:17:21;;;;;;;;;;;;;;;17.48;66.75;99186.38;4958102;28;4875;-77
2023/07/30 12:19:47;;;;;;;;;;;;;;;17.47;66.77;99179.28;4978387;28;4741;-77
2023/07/30 12:22:15;;;;;;;;;;;;;;;17.47;66.86;99179.28;4981335;28;4982;-77
2023/07/30 12:24:41;;;;;;;;;;;;;;;17.47;66.74;99177.41;4960719;28;4247;-77
2023/07/30 12:27:08;;;;;;;;;;;;;;;17.48;66.79;99181.72;4962186;28;4854;-76
2023/07/30 12:29:34;;;;;;;;;;;;;;;17.49;66.77;99186.06;4960590;28;4191;-75
2023/07/30 12:32:01;;;;;;;;;;;;;;;17.49;66.63;99177.88;4978254;28;4784;-77
2023/07/30 12:37:37;;;;;;;;;;;;;;;17.51;66.66;99190.41;4979373;28;4626;-74
2023/07/30 12:40:05;;;;;;;;;;;;;;;17.51;66.90;99177.59;4980551;28;4832;-76
2023/07/30 12:42:32;;;;;;;;;;;;;;;17.52;66.88;99189.28;4979186;28;4703;-76
2023/07/30 12:44:59;;;;;;;;;;;;;;;17.52;66.70;99175.69;4978526;28;4978;-76
2023/07/30 12:47:25;;;;;;;;;;;;;;;17.53;66.83;99186.28;4973647;28;4736;-78
2023/07/30 12:49:52;;;;;;;;;;;;;;;17.77;66.72;99180.69;4960421;28;4682;-76
2023/07/30 12:52:18;;;;;;;;;;;;;;;17.97;73.30;99182.25;4979015;28;4768;-75
2023/07/30 12:54:46;;;;;;;;;;;;;;;17.81;67.52;99191.81;4978602;28;4808;-76
2023/07/30 12:57:12;;;;;;;;;;;;;;;17.68;67.72;99180.56;4978400;28;4764;-77
2023/07/30 12:59:39;;;;;;;;;;;;;;;17.66;68.34;99201.03;4979269;28;4931;-76